Time;durP1;ratioP1;P1;durP2;ratioP2;P2;SDS_P1;SDS_P2;PMS_P1;PMS_P2;Temp;Humidity;BMP_temperature;BMP_pressure;BME280_temperature;BME280_humidity;BME280_pressure;Samples;Min_cycle;Max_cycle;Signal;HPM_P1;HPM_P2
2022/10/05 00:01:24;;;;;;;5.40;4.70;;;8.20;99.90;;;;;;4975409;28;20455;-83
2022/10/05 00:03:52;;;;;;;10.90;5.63;;;;;;;;;;4975183;28;20446;-82
2022/10/05 00:06:19;;;;;;;7.37;4.90;;;;;;;;;;4974107;28;20458;-82
2022/10/05 00:08:48;;;;;;;6.50;4.90;;;;;;;;;;4975218;28;20451;-83
2022/10/05 00:11:17;;;;;;;7.17;5.50;;;8.40;99.90;;;;;;4975148;28;20457;-83
2022/10/05 00:13:45;;;;;;;9.30;5.80;;;;;;;;;;4975237;28;20541;-82
2022/10/05 00:16:16;;;;;;;10.17;5.37;;;8.50;99.90;;;;;;4975030;28;20449;-82
2022/10/05 00:18:50;;;;;;;9.60;5.80;;;8.50;99.90;;;;;;4974986;28;20992;-83
2022/10/05 00:21:20;;;;;;;8.47;5.90;;;8.50;99.90;;;;;;4973785;28;20450;-83
2022/10/05 00:23:50;;;;;;;8.70;5.97;;;8.60;99.90;;;;;;4974998;28;20450;-82
2022/10/05 00:26:21;;;;;;;7.13;5.93;;;8.50;99.90;;;;;;4974617;28;20458;-82
2022/10/05 00:28:48;;;;;;;8.33;5.50;;;;;;;;;;4974794;28;20950;-83
2022/10/05 00:31:18;;;;;;;6.50;5.53;;;8.60;99.90;;;;;;4974910;28;20446;-83
2022/10/05 00:33:46;;;;;;;7.93;5.80;;;;;;;;;;4974747;28;20469;-83
2022/10/05 00:36:13;;;;;;;10.63;6.70;;;;;;;;;;4973506;28;20502;-83
2022/10/05 00:38:41;;;;;;;11.30;6.80;;;;;;;;;;4974662;28;20462;-83
2022/10/05 00:41:13;;;;;;;12.53;7.57;;;9.70;99.90;;;;;;4974748;28;20453;-82
2022/10/05 00:44:08;;;;;;;10.00;8.23;;;9.90;99.90;;;;;;4974586;28;20451;-82
2022/10/05 00:46:39;;;;;;;8.87;7.50;;;;;;;;;;4974606;28;20450;-83
2022/10/05 00:49:12;;;;;;;9.17;7.83;;;;;;;;;;4974490;28;20934;-83
2022/10/05 00:51:45;;;;;;;9.80;7.10;;;9.80;99.90;;;;;;4973195;28;20495;-82
2022/10/05 00:54:26;;;;;;;14.80;8.43;;;9.80;99.90;;;;;;4974558;28;20454;-83
2022/10/05 00:57:18;;;;;;;10.27;7.73;;;10.00;99.90;;;;;;4974447;28;20489;-82
2022/10/05 01:00:00;;;;;;;10.07;7.90;;;10.00;99.90;;;;;;4974436;28;20450;-83
2022/10/05 01:02:34;;;;;;;9.17;7.90;;;10.00;99.90;;;;;;4974397;28;20458;-82
2022/10/05 01:05:04;;;;;;;10.97;7.60;;;10.10;99.90;;;;;;4972600;28;20458;-83
2022/10/05 01:07:40;;;;;;;8.13;7.30;;;10.10;99.90;;;;;;4974405;28;20501;-83
2022/10/05 01:10:15;;;;;;;10.97;8.40;;;10.10;99.90;;;;;;4974224;28;20530;-82
2022/10/05 01:12:54;;;;;;;10.53;8.83;;;10.30;99.90;;;;;;4974354;28;20454;-82
2022/10/05 01:15:27;;;;;;;9.10;7.27;;;10.40;99.90;;;;;;4973946;28;20450;-83
2022/10/05 01:18:00;;;;;;;9.03;7.57;;;10.30;99.90;;;;;;4974182;28;20493;-82
2022/10/05 01:20:49;;;;;;;12.30;8.87;;;10.20;99.90;;;;;;4972881;28;20450;-83
2022/10/05 01:23:40;;;;;;;14.27;8.13;;;10.10;99.90;;;;;;4974174;28;20446;-82
2022/10/05 01:26:19;;;;;;;10.00;7.73;;;10.30;99.90;;;;;;4974168;28;20474;-83
2022/10/05 01:28:52;;;;;;;16.13;7.17;;;10.30;99.90;;;;;;4974075;28;20465;-83
2022/10/05 01:31:25;;;;;;;12.03;8.83;;;10.20;99.90;;;;;;4974076;28;20450;-82
2022/10/05 01:33:58;;;;;;;9.90;8.20;;;10.10;99.90;;;;;;4974054;28;20466;-82
2022/10/05 01:36:31;;;;;;;9.93;7.77;;;9.90;99.90;;;;;;4972800;28;20446;-82
2022/10/05 01:39:05;;;;;;;11.03;7.73;;;9.80;99.90;;;;;;4973980;28;20451;-83
2022/10/05 01:41:39;;;;;;;9.20;7.50;;;9.70;99.90;;;;;;4973980;28;20953;-82
2022/10/05 01:44:13;;;;;;;7.83;6.93;;;9.50;99.90;;;;;;4973916;28;20831;-82
2022/10/05 01:46:45;;;;;;;8.30;6.47;;;9.40;99.90;;;;;;4973918;28;20488;-82
2022/10/05 01:49:28;;;;;;;10.83;7.27;;;;;;;;;;4973955;28;20976;-82
2022/10/05 01:52:04;;;;;;;9.40;7.00;;;9.70;99.90;;;;;;4973050;28;20485;-82
2022/10/05 01:54:39;;;;;;;10.27;8.60;;;9.70;99.90;;;;;;4973855;28;20461;-82
2022/10/05 01:57:19;;;;;;;10.43;7.53;;;9.90;99.90;;;;;;4914130;29;20510;-82
2022/10/05 01:59:59;;;;;;;10.77;8.00;;;10.10;99.90;;;;;;4914346;29;20449;-83
2022/10/05 02:02:28;;;;;;;10.37;8.40;;;10.20;99.90;;;;;;4911873;29;20457;-82
2022/10/05 02:05:03;;;;;;;11.60;8.20;;;10.20;99.90;;;;;;4912928;29;20457;-82
2022/10/05 02:07:34;;;;;;;9.93;8.27;;;10.40;99.90;;;;;;4914278;29;21019;-82
2022/10/05 02:10:05;;;;;;;10.83;7.93;;;10.30;99.90;;;;;;4907772;29;20452;-82
2022/10/05 02:12:37;;;;;;;7.33;6.47;;;10.30;99.90;;;;;;4908601;29;20449;-82
2022/10/05 02:15:11;;;;;;;8.27;7.20;;;10.40;99.90;;;;;;4936071;28;20442;-82
2022/10/05 02:17:43;;;;;;;11.80;7.80;;;10.30;99.90;;;;;;4976555;28;20480;-82
2022/10/05 02:20:14;;;;;;;8.87;6.80;;;10.10;99.90;;;;;;4976078;28;20461;-83
2022/10/05 02:22:45;;;;;;;9.90;7.03;;;9.90;99.90;;;;;;4977252;28;20458;-82
2022/10/05 02:25:16;;;;;;;7.27;6.30;;;9.80;99.90;;;;;;4977286;28;20461;-82
2022/10/05 02:27:47;;;;;;;8.00;7.13;;;9.70;99.90;;;;;;4977018;28;20458;-82
2022/10/05 02:30:17;;;;;;;7.10;6.40;;;9.60;99.90;;;;;;4977169;28;20469;-83
2022/10/05 02:32:51;;;;;;;11.60;8.30;;;9.60;99.90;;;;;;4977023;28;20945;-82
2022/10/05 02:35:20;;;;;;;9.70;7.80;;;9.60;99.90;;;;;;4975846;28;20457;-82
2022/10/05 02:37:56;;;;;;;10.00;7.80;;;9.60;99.90;;;;;;4976878;28;20505;-82
2022/10/05 02:40:35;;;;;;;9.33;7.70;;;9.50;99.90;;;;;;4976892;28;20500;-83
2022/10/05 02:43:13;;;;;;;9.27;7.07;;;9.40;99.90;;;;;;4976934;28;20461;-82
2022/10/05 02:45:48;;;;;;;8.87;7.20;;;9.30;99.90;;;;;;4976762;28;20454;-82
2022/10/05 02:48:25;;;;;;;8.43;7.10;;;9.30;99.90;;;;;;4976751;28;20469;-83
2022/10/05 02:51:01;;;;;;;8.13;6.40;;;9.10;99.90;;;;;;4975526;28;20458;-83
2022/10/05 02:53:35;;;;;;;8.53;7.20;;;9.00;99.90;;;;;;4974309;28;20669;-82
2022/10/05 02:56:13;;;;;;;10.33;6.50;;;8.90;99.90;;;;;;4976719;28;20468;-82
2022/10/05 02:58:48;;;;;;;8.63;6.70;;;8.90;99.90;;;;;;4976517;28;20493;-82
2022/10/05 03:01:24;;;;;;;7.20;6.33;;;8.80;99.90;;;;;;4976411;28;20454;-82
2022/10/05 03:04:01;;;;;;;10.50;7.80;;;8.70;99.90;;;;;;4976517;28;20449;-82
2022/10/05 03:06:32;;;;;;;10.10;6.33;;;8.60;99.90;;;;;;4975189;28;20464;-82
2022/10/05 03:09:02;;;;;;;7.70;6.60;;;8.60;99.90;;;;;;4976402;28;20469;-82
2022/10/05 03:11:35;;;;;;;9.83;7.47;;;8.50;99.90;;;;;;4976243;28;20477;-82
2022/10/05 03:14:08;;;;;;;6.97;6.30;;;8.40;99.90;;;;;;4976366;28;20533;-82
2022/10/05 03:16:40;;;;;;;8.03;6.40;;;;;;;;;;4976234;28;20458;-82
2022/10/05 03:19:21;;;;;;;6.83;6.13;;;8.40;99.90;;;;;;4976120;28;20494;-82
2022/10/05 03:21:57;;;;;;;10.93;6.83;;;8.30;99.90;;;;;;4975043;28;20450;-82
2022/10/05 03:24:46;;;;;;;11.00;6.63;;;8.20;99.90;;;;;;4976150;28;20541;-82
2022/10/05 03:27:29;;;;;;;8.63;5.93;;;8.20;99.90;;;;;;4976108;28;20450;-82
2022/10/05 03:30:04;;;;;;;8.83;7.10;;;8.20;99.90;;;;;;4975855;28;20462;-82
2022/10/05 03:32:42;;;;;;;7.50;6.70;;;8.30;99.90;;;;;;4975867;28;20453;-82
2022/10/05 03:35:15;;;;;;;8.00;6.97;;;8.30;99.90;;;;;;4974792;28;20454;-82
2022/10/05 03:37:48;;;;;;;8.83;6.77;;;8.30;99.90;;;;;;4975821;28;20489;-82
2022/10/05 03:40:26;;;;;;;8.97;7.60;;;8.30;99.90;;;;;;4975755;28;20976;-82
2022/10/05 03:43:01;;;;;;;8.70;7.60;;;8.40;99.90;;;;;;4975703;28;20445;-82
2022/10/05 03:45:33;;;;;;;10.27;9.00;;;8.50;99.90;;;;;;4975642;28;20937;-82
2022/10/05 03:48:07;;;;;;;9.93;8.00;;;8.70;99.90;;;;;;4975683;28;20813;-82
2022/10/05 03:50:43;;;;;;;12.47;9.63;;;9.00;99.90;;;;;;4974473;28;20788;-82
2022/10/05 03:53:16;;;;;;;12.70;9.93;;;9.50;99.90;;;;;;4974247;28;20477;-82
2022/10/05 03:55:48;;;;;;;12.30;10.27;;;9.60;99.90;;;;;;4975610;28;20454;-82
2022/10/05 03:58:20;;;;;;;11.37;9.97;;;9.70;99.90;;;;;;4975278;28;20509;-82
2022/10/05 04:00:52;;;;;;;11.10;9.23;;;9.70;99.90;;;;;;4975431;28;20458;-82
2022/10/05 04:03:24;;;;;;;10.97;9.60;;;9.80;99.90;;;;;;4973998;28;20459;-82
2022/10/05 04:05:56;;;;;;;14.13;9.97;;;9.70;99.90;;;;;;4971511;28;20821;-82
2022/10/05 04:08:31;;;;;;;10.70;9.00;;;9.50;99.90;;;;;;4975308;28;20451;-82
2022/10/05 04:11:02;;;;;;;10.60;9.10;;;9.50;99.90;;;;;;4975235;28;20476;-82
2022/10/05 04:13:34;;;;;;;16.57;9.27;;;9.40;99.90;;;;;;4975161;28;20454;-82
2022/10/05 04:16:08;;;;;;;10.87;8.43;;;9.20;99.90;;;;;;4975145;28;20485;-83
2022/10/05 04:18:39;;;;;;;9.97;7.63;;;9.20;99.90;;;;;;4974830;28;21029;-82
2022/10/05 04:21:11;;;;;;;10.47;8.23;;;9.00;99.90;;;;;;4973847;28;20561;-82
2022/10/05 04:23:48;;;;;;;11.27;8.47;;;8.90;99.90;;;;;;4974992;28;20458;-82
2022/10/05 04:26:19;;;;;;;15.03;9.90;;;8.80;99.90;;;;;;4974936;28;20458;-82
2022/10/05 04:28:53;;;;;;;10.60;8.60;;;8.70;99.90;;;;;;4974740;28;20502;-82
2022/10/05 04:31:36;;;;;;;10.87;8.43;;;8.70;99.90;;;;;;4974931;28;20461;-82
2022/10/05 04:34:29;;;;;;;10.60;7.97;;;8.60;99.90;;;;;;4941020;28;20470;-82
2022/10/05 04:37:02;;;;;;;12.27;8.60;;;8.60;99.90;;;;;;4974003;28;20455;-82
2022/10/05 04:39:41;;;;;;;12.10;9.10;;;8.50;99.90;;;;;;4971498;28;20501;-81
2022/10/05 04:42:16;;;;;;;11.00;8.97;;;9.10;99.90;;;;;;4974636;28;20973;-82
2022/10/05 04:45:02;;;;;;;11.23;9.33;;;8.90;99.90;;;;;;4974681;28;20972;-82
2022/10/05 04:47:50;;;;;;;12.40;9.63;;;8.80;99.90;;;;;;4974702;28;20449;-82
2022/10/05 04:50:28;;;;;;;13.00;10.03;;;8.70;99.90;;;;;;4973308;28;20454;-82
2022/10/05 04:53:06;;;;;;;11.50;9.83;;;8.80;99.90;;;;;;4974521;28;20842;-82
2022/10/05 04:55:40;;;;;;;16.00;10.10;;;8.90;99.90;;;;;;4973767;28;20457;-82
2022/10/05 04:58:24;;;;;;;11.13;9.93;;;8.80;99.90;;;;;;4971336;28;20481;-82
2022/10/05 05:01:03;;;;;;;11.47;9.03;;;8.60;99.90;;;;;;4974533;28;20536;-82
2022/10/05 05:03:48;;;;;;;11.93;9.30;;;8.80;99.90;;;;;;4971867;28;20449;-82
2022/10/05 05:06:32;;;;;;;13.93;9.97;;;8.70;99.90;;;;;;4971757;28;20457;-82
2022/10/05 05:09:13;;;;;;;12.13;10.10;;;8.60;99.90;;;;;;4974445;28;20454;-82
2022/10/05 05:11:52;;;;;;;11.40;8.87;;;8.60;99.90;;;;;;4974288;28;20474;-82
2022/10/05 05:14:36;;;;;;;14.03;8.70;;;8.50;99.90;;;;;;4974354;28;20462;-81
2022/10/05 05:17:20;;;;;;;12.60;9.67;;;8.40;99.90;;;;;;4974893;28;20478;-82
2022/10/05 05:19:57;;;;;;;11.90;10.00;;;8.40;99.90;;;;;;4973155;28;20505;-82
2022/10/05 05:22:35;;;;;;;10.27;8.40;;;8.10;99.90;;;;;;4974127;28;20453;-81
2022/10/05 05:25:19;;;;;;;9.97;8.23;;;8.10;99.90;;;;;;4974027;28;20453;-81
2022/10/05 05:27:50;;;;;;;12.23;9.23;;;8.00;99.90;;;;;;4974172;28;20832;-81
2022/10/05 05:30:22;;;;;;;13.83;10.10;;;8.00;99.90;;;;;;4974112;28;20454;-81
2022/10/05 05:33:00;;;;;;;11.93;8.93;;;8.00;99.90;;;;;;4973829;28;20458;-81
2022/10/05 05:35:43;;;;;;;11.10;9.30;;;8.00;99.90;;;;;;4972776;28;20462;-82
2022/10/05 05:38:25;;;;;;;17.27;12.40;;;7.90;99.90;;;;;;4973894;28;20493;-81
2022/10/05 05:41:04;;;;;;;18.73;11.60;;;7.90;99.90;;;;;;4973728;28;20458;-81
2022/10/05 05:43:43;;;;;;;13.43;10.80;;;7.80;99.90;;;;;;4974052;28;20454;-81
2022/10/05 05:46:16;;;;;;;11.83;10.63;;;7.80;99.90;;;;;;4973734;28;20462;-81
2022/10/05 05:48:45;;;;;;;14.73;12.07;;;8.00;99.90;;;;;;4973987;28;20446;-81
2022/10/05 05:51:17;;;;;;;22.87;20.47;;;8.20;99.90;;;;;;4973345;28;20826;-81
2022/10/05 05:53:47;;;;;;;16.20;14.13;;;8.40;99.90;;;;;;4977755;28;20457;-81
2022/10/05 05:56:17;;;;;;;19.60;17.60;;;8.50;99.90;;;;;;4977674;28;20551;-81
2022/10/05 05:58:50;;;;;;;17.63;14.90;;;8.50;99.90;;;;;;4977556;28;20503;-82
2022/10/05 06:01:24;;;;;;;19.73;15.27;;;8.60;99.90;;;;;;4977577;28;20460;-81
2022/10/05 06:03:55;;;;;;;16.27;14.50;;;8.70;99.90;;;;;;4977519;28;20504;-82
2022/10/05 06:06:26;;;;;;;11.73;10.53;;;8.90;99.90;;;;;;4976130;28;20453;-82
2022/10/05 06:08:57;;;;;;;13.63;11.43;;;9.10;99.90;;;;;;4977269;28;20460;-82
2022/10/05 06:11:28;;;;;;;14.13;11.57;;;9.50;99.90;;;;;;4977429;28;20458;-82
2022/10/05 06:13:59;;;;;;;12.37;9.93;;;9.60;99.90;;;;;;4977361;28;20466;-82
2022/10/05 06:16:30;;;;;;;11.97;10.77;;;;;;;;;;4976983;28;20454;-82
2022/10/05 06:18:59;;;;;;;13.93;10.07;;;;;;;;;;4977106;28;20490;-82
2022/10/05 06:21:29;;;;;;;15.40;9.53;;;;;;;;;;4975939;28;20457;-82
2022/10/05 06:24:02;;;;;;;10.60;9.43;;;10.60;99.90;;;;;;4977176;28;20972;-83
2022/10/05 06:27:11;;;;;;;11.67;8.40;;;10.90;99.90;;;;;;4977273;28;20802;-82
2022/10/05 06:30:10;;;;;;;10.80;7.87;;;11.30;99.90;;;;;;4941111;28;20473;-82
2022/10/05 06:32:48;;;;;;;8.20;7.40;;;;;;;;;;4962196;28;20512;-83
2022/10/05 06:35:20;;;;;;;12.63;10.17;;;;;;;;;;4975703;28;20461;-82
2022/10/05 06:38:04;;;;;;;11.70;8.70;;;12.40;99.90;;;;;;4976951;28;20516;-82
2022/10/05 06:40:53;;;;;;;8.77;7.97;;;12.60;99.90;;;;;;4976839;28;20461;-82
2022/10/05 06:43:33;;;;;;;8.43;7.00;;;13.00;99.90;;;;;;4976794;28;20465;-82
2022/10/05 06:46:06;;;;;;;8.40;7.57;;;13.20;99.90;;;;;;4976722;28;20466;-83
2022/10/05 06:48:46;;;;;;;7.50;6.73;;;13.60;99.90;;;;;;4977031;28;20462;-83
2022/10/05 06:51:22;;;;;;;7.73;6.30;;;;;;;;;;4975355;28;20563;-83
2022/10/05 06:53:59;;;;;;;9.03;6.27;;;14.50;99.90;;;;;;4976729;28;20450;-82
2022/10/05 06:56:36;;;;;;;5.73;4.43;;;14.90;99.90;;;;;;4976651;28;21021;-81
2022/10/05 06:59:09;;;;;;;6.23;5.60;;;15.10;99.90;;;;;;4976499;28;20498;-82
2022/10/05 07:01:44;;;;;;;6.13;5.57;;;15.50;99.90;;;;;;4976489;28;20461;-82
2022/10/05 07:04:45;;;;;;;7.33;4.70;;;16.00;99.90;;;;;;4975809;28;20450;-82
2022/10/05 07:07:22;;;;;;;4.37;4.07;;;16.20;99.90;;;;;;4973392;28;20462;-83
2022/10/05 07:10:02;;;;;;;4.60;4.13;;;16.80;99.90;;;;;;4975992;28;20453;-83
2022/10/05 07:12:44;;;;;;;3.77;3.47;;;16.70;99.90;;;;;;4976512;28;20532;-83
2022/10/05 07:15:37;;;;;;;3.63;3.33;;;16.80;99.90;;;;;;4976323;28;20454;-84
2022/10/05 07:18:24;;;;;;;4.20;3.50;;;16.70;99.90;;;;;;4976272;28;20458;-82
2022/10/05 07:21:00;;;;;;;3.10;2.43;;;16.70;99.90;;;;;;4972501;28;20469;-82
2022/10/05 07:23:42;;;;;;;2.80;2.50;;;16.60;99.90;;;;;;4976191;28;20454;-86
2022/10/05 07:26:17;;;;;;;3.67;2.93;;;17.00;99.90;;;;;;4976007;28;20453;-84
2022/10/05 07:28:50;;;;;;;2.73;2.53;;;17.70;99.90;;;;;;4976093;28;20828;-84
2022/10/05 07:31:27;;;;;;;2.43;2.23;;;17.10;99.90;;;;;;4976316;28;20465;-86
2022/10/05 07:34:04;;;;;;;3.47;2.60;;;16.80;99.90;;;;;;4976050;28;20449;-83
2022/10/05 07:39:33;;;;;;;5.13;2.77;;;18.30;99.90;;;;;;4975744;28;20984;-85
2022/10/05 07:42:04;;;;;;;3.63;2.80;;;;;;;;;;4975340;28;20829;-87
2022/10/05 07:44:38;;;;;;;3.07;2.53;;;18.70;99.90;;;;;;4975565;28;20474;-84
2022/10/05 07:47:12;;;;;;;3.73;3.23;;;18.90;99.90;;;;;;4975595;28;20800;-83
2022/10/05 07:49:47;;;;;;;6.17;4.70;;;19.90;99.90;;;;;;4974356;28;20449;-83
2022/10/05 07:52:21;;;;;;;3.30;3.00;;;20.50;99.90;;;;;;4975414;28;20491;-86
2022/10/05 07:54:59;;;;;;;2.17;2.07;;;20.50;99.60;;;;;;4975469;28;20464;-84
2022/10/05 07:57:37;;;;;;;2.63;2.37;;;21.30;98.40;;;;;;4975503;28;20454;-84
2022/10/05 08:00:09;;;;;;;3.50;2.33;;;21.70;97.10;;;;;;4975357;28;20864;-84
2022/10/05 08:02:43;;;;;;;2.20;2.00;;;21.40;97.10;;;;;;4975397;28;20466;-85
2022/10/05 08:05:15;;;;;;;3.70;2.23;;;21.60;97.10;;;;;;4974063;28;20490;-85
2022/10/05 08:07:42;;;;;;;3.20;2.33;;;;;;;;;;4975311;28;20457;-85
2022/10/05 08:10:25;;;;;;;2.80;2.40;;;19.90;95.90;;;;;;4975249;28;20458;-85
2022/10/05 08:13:00;;;;;;;2.40;2.20;;;;;;;;;;4975425;28;20447;-87
2022/10/05 08:15:32;;;;;;;2.30;2.10;;;19.50;99.10;;;;;;4975188;28;20446;-89
2022/10/05 08:18:02;;;;;;;2.50;2.30;;;19.40;98.30;;;;;;4975120;28;20451;-86
2022/10/05 08:20:39;;;;;;;2.13;1.93;;;19.30;97.50;;;;;;4973616;28;20507;-85
2022/10/05 08:23:17;;;;;;;2.23;2.03;;;20.20;98.40;;;;;;4974635;28;20454;-86
2022/10/05 08:26:08;;;;;;;2.70;2.50;;;20.80;96.70;;;;;;4974090;28;20950;-85
2022/10/05 08:28:38;;;;;;;2.60;2.40;;;20.30;98.40;;;;;;4969694;28;20458;-85
2022/10/05 08:31:13;;;;;;;2.83;2.47;;;;;;;;;;4955855;28;20486;-88
2022/10/05 08:33:51;;;;;;;3.30;2.60;;;20.60;97.70;;;;;;4955348;28;20454;-87
2022/10/05 08:36:22;;;;;;;9.33;3.03;;;;;;;;;;4954236;28;20459;-87
2022/10/05 08:38:54;;;;;;;3.60;2.47;;;19.80;98.60;;;;;;4955319;28;20455;-87
2022/10/05 08:42:19;;;;;;;3.40;2.80;;;20.40;93.30;;;;;;4955310;28;20466;-87
2022/10/05 08:45:20;;;;;;;2.63;2.43;;;20.80;95.30;;;;;;4915189;29;20471;-84
2022/10/05 08:48:14;;;;;;;2.57;2.07;;;19.90;96.60;;;;;;4882407;29;20449;-84
2022/10/05 08:51:11;;;;;;;4.10;2.33;;;20.00;96.40;;;;;;4947892;28;20505;-87
2022/10/05 08:54:05;;;;;;;3.73;2.07;;;20.00;96.90;;;;;;4955054;28;20947;-83
2022/10/05 08:56:41;;;;;;;2.87;2.03;;;19.40;96.20;;;;;;4954946;28;20451;-84
2022/10/05 08:59:47;;;;;;;2.00;1.90;;;20.20;92.90;;;;;;4955022;28;20938;-83
2022/10/05 09:02:23;;;;;;;2.10;1.90;;;21.00;93.20;;;;;;4954955;28;20458;-84
2022/10/05 09:05:11;;;;;;;3.00;2.00;;;21.40;92.20;;;;;;4954189;28;20830;-85
2022/10/05 09:08:09;;;;;;;2.30;2.10;;;21.20;91.70;;;;;;4955335;28;20812;-86
2022/10/05 09:10:56;;;;;;;2.30;2.10;;;20.40;92.60;;;;;;4954741;28;20507;-85
2022/10/05 09:13:46;;;;;;;2.00;1.90;;;20.50;92.70;;;;;;4953540;28;20465;-85
2022/10/05 09:16:35;;;;;;;3.30;1.70;;;20.70;93.50;;;;;;4954934;28;20462;-84
2022/10/05 09:19:34;;;;;;;2.20;2.00;;;20.10;93.90;;;;;;4954886;28;20807;-84
2022/10/05 09:22:12;;;;;;;2.27;2.10;;;21.20;91.60;;;;;;4952040;28;20973;-84
2022/10/05 09:24:54;;;;;;;2.20;2.00;;;20.50;93.30;;;;;;4954575;28;20459;-83
2022/10/05 09:27:34;;;;;;;2.20;2.00;;;20.20;94.50;;;;;;4954162;28;20459;-84
2022/10/05 09:30:20;;;;;;;6.10;3.00;;;21.50;91.80;;;;;;4954960;28;20498;-89
2022/10/05 09:33:24;;;;;;;4.27;1.80;;;21.40;93.00;;;;;;4954735;28;20451;-86
2022/10/05 09:36:21;;;;;;;2.13;2.03;;;22.00;90.70;;;;;;4944450;28;20463;-85
2022/10/05 09:39:18;;;;;;;2.47;2.27;;;22.00;91.50;;;;;;4954827;28;20457;-85
2022/10/05 09:42:07;;;;;;;3.50;2.10;;;21.10;93.00;;;;;;4953171;28;20462;-84
2022/10/05 09:45:02;;;;;;;3.43;2.17;;;21.50;93.30;;;;;;4954682;28;20454;-84
2022/10/05 09:47:59;;;;;;;4.90;1.83;;;21.80;90.90;;;;;;4954693;28;20451;-87
2022/10/05 09:50:41;;;;;;;1.80;1.60;;;;;;;;;;4953640;28;20495;-87
2022/10/05 09:53:26;;;;;;;2.37;2.00;;;;;;;;;;4955401;28;20501;-95
2022/10/05 09:56:14;;;;;;;1.80;1.70;;;21.80;91.50;;;;;;4953716;28;20463;-84
2022/10/05 09:59:18;;;;;;;1.70;1.60;;;23.00;87.60;;;;;;4954528;28;20449;-86
2022/10/05 10:02:15;;;;;;;3.20;2.03;;;24.20;86.60;;;;;;4954678;28;20463;-87
2022/10/05 10:05:04;;;;;;;2.70;1.67;;;;;;;;;;4954026;28;20451;-86
2022/10/05 10:07:49;;;;;;;2.00;1.80;;;24.70;86.10;;;;;;4956660;28;20467;-87
2022/10/05 10:10:39;;;;;;;2.90;1.50;;;24.30;83.60;;;;;;4954713;28;20491;-85
2022/10/05 10:13:24;;;;;;;1.57;1.47;;;23.50;83.70;;;;;;4954393;28;20784;-85
2022/10/05 10:16:17;;;;;;;3.97;1.60;;;23.70;84.40;;;;;;4954363;28;20443;-87
2022/10/05 10:19:25;;;;;;;1.83;1.30;;;23.00;85.90;;;;;;4954629;28;20478;-86
2022/10/05 10:22:24;;;;;;;2.50;1.20;;;23.80;81.20;;;;;;4913255;29;20456;-86
2022/10/05 10:25:39;;;;;;;1.60;1.50;;;23.80;82.20;;;;;;4953552;28;20459;-89
2022/10/05 10:28:24;;;;;;;1.60;1.50;;;23.60;85.60;;;;;;4938067;29;20459;-86
2022/10/05 10:31:16;;;;;;;2.80;1.73;;;23.30;82.90;;;;;;4955061;28;20499;-86
2022/10/05 10:34:22;;;;;;;3.40;1.77;;;22.90;83.50;;;;;;4954465;28;20455;-86
2022/10/05 10:37:11;;;;;;;1.83;1.63;;;22.40;86.10;;;;;;4942642;28;20954;-87
2022/10/05 10:40:00;;;;;;;2.30;1.63;;;23.00;85.70;;;;;;4956888;28;20454;-85
2022/10/05 10:42:40;;;;;;;1.73;1.60;;;23.30;82.20;;;;;;4957953;28;20458;-86
2022/10/05 10:45:42;;;;;;;2.00;1.43;;;22.60;86.80;;;;;;4957807;28;20459;-85
2022/10/05 10:48:31;;;;;;;1.67;1.47;;;22.80;87.00;;;;;;4957930;28;20482;-85
2022/10/05 10:51:16;;;;;;;2.10;1.50;;;23.20;85.10;;;;;;4956144;28;20494;-86
2022/10/05 10:54:16;;;;;;;2.77;1.57;;;23.60;85.50;;;;;;4956114;28;20859;-86
2022/10/05 10:56:54;;;;;;;2.27;1.67;;;;;;;;;;4957505;28;20463;-87
2022/10/05 11:00:04;;;;;;;1.77;1.43;;;23.70;84.10;;;;;;4957430;28;20485;-85
2022/10/05 11:02:57;;;;;;;2.13;1.93;;;23.10;88.10;;;;;;4957703;28;20451;-86
2022/10/05 11:06:11;;;;;;;2.17;1.87;;;23.40;85.20;;;;;;4956369;28;20451;-86
2022/10/05 11:09:10;;;;;;;1.67;1.57;;;22.40;86.90;;;;;;4958261;28;20501;-85
2022/10/05 11:12:11;;;;;;;2.07;1.97;;;23.60;87.10;;;;;;4957126;28;20506;-85
2022/10/05 11:15:10;;;;;;;4.30;1.70;;;23.80;83.00;;;;;;4934758;28;20457;-85
2022/10/05 11:18:00;;;;;;;1.67;1.57;;;24.10;82.80;;;;;;4951231;28;20463;-85
2022/10/05 11:21:10;;;;;;;2.60;2.00;;;24.20;83.20;;;;;;4950591;28;20470;-86
2022/10/05 11:24:05;;;;;;;1.90;1.80;;;23.50;86.50;;;;;;4957225;28;20466;-84
2022/10/05 11:26:40;;;;;;;2.80;2.00;;;;;;;;;;4957512;28;20530;-85
2022/10/05 11:29:38;;;;;;;1.97;1.77;;;23.40;84.50;;;;;;4957258;28;20470;-85
2022/10/05 11:32:33;;;;;;;1.87;1.77;;;23.80;88.10;;;;;;4957316;28;20462;-86
2022/10/05 11:35:26;;;;;;;2.57;1.80;;;24.50;83.00;;;;;;4955267;28;20451;-86
2022/10/05 11:38:27;;;;;;;1.80;1.60;;;24.80;83.50;;;;;;4956560;28;20943;-86
2022/10/05 11:41:26;;;;;;;4.40;1.90;;;24.80;85.00;;;;;;4954736;28;20467;-86
2022/10/05 11:44:22;;;;;;;4.17;2.30;;;24.80;84.20;;;;;;4958425;28;20459;-90
2022/10/05 11:46:56;;;;;;;2.57;1.90;;;;;;;;;;4940125;29;20443;-88
2022/10/05 11:49:32;;;;;;;2.20;2.00;;;23.90;85.80;;;;;;4957331;28;20495;-85
2022/10/05 11:52:12;;;;;;;2.07;1.93;;;23.90;87.10;;;;;;4956626;28;20479;-90
2022/10/05 11:55:08;;;;;;;1.73;1.63;;;24.00;86.60;;;;;;4957935;28;20471;-90
2022/10/05 11:57:41;;;;;;;2.10;1.97;;;23.70;88.00;;;;;;4957451;28;20466;-89
2022/10/05 12:00:14;;;;;;;2.50;1.97;;;23.80;86.30;;;;;;4954535;28;20459;-85
2022/10/05 12:03:31;;;;;;;2.53;2.10;;;23.90;84.70;;;;;;4958535;29;20830;-89
2022/10/05 12:06:12;;;;;;;1.70;1.60;;;23.40;87.10;;;;;;4952609;28;20466;-88
2022/10/05 12:08:52;;;;;;;4.50;2.33;;;23.70;86.60;;;;;;4956240;28;20824;-87
2022/10/05 12:11:41;;;;;;;2.33;2.13;;;23.80;85.00;;;;;;4938247;28;20483;-86
2022/10/05 12:14:16;;;;;;;2.03;1.83;;;24.60;85.50;;;;;;4955769;28;20452;-87
2022/10/05 12:16:50;;;;;;;1.93;1.73;;;23.80;86.00;;;;;;4956108;28;20825;-84
2022/10/05 12:19:26;;;;;;;2.73;1.77;;;23.80;87.80;;;;;;4956291;28;20678;-86
2022/10/05 12:22:00;;;;;;;2.03;1.83;;;24.50;86.80;;;;;;4954314;28;20864;-87
2022/10/05 12:24:46;;;;;;;3.47;2.00;;;25.00;83.60;;;;;;4955776;28;20454;-91
2022/10/05 12:27:18;;;;;;;1.60;1.50;;;24.90;85.00;;;;;;4956151;28;20455;-89
2022/10/05 12:29:47;;;;;;;1.43;1.33;;;;;;;;;;4956408;28;20447;-86
2022/10/05 12:32:18;;;;;;;1.60;1.50;;;24.40;82.60;;;;;;4956709;28;20835;-83
2022/10/05 12:34:54;;;;;;;2.00;1.70;;;24.50;82.00;;;;;;4954863;28;20451;-87
2022/10/05 12:37:42;;;;;;;4.93;2.03;;;24.10;81.00;;;;;;4956331;28;20469;-87
2022/10/05 12:40:23;;;;;;;2.10;1.90;;;24.30;82.40;;;;;;4956074;28;20538;-91
2022/10/05 12:43:03;;;;;;;1.00;0.70;;;23.90;81.00;;;;;;4955916;29;20459;-88
2022/10/05 12:45:44;;;;;;;3.40;1.97;;;24.30;78.80;;;;;;4956571;28;20481;-92
2022/10/05 12:48:25;;;;;;;2.23;1.27;;;23.90;78.70;;;;;;4955570;28;20454;-86
2022/10/05 12:50:59;;;;;;;1.20;1.10;;;24.00;76.70;;;;;;4954110;28;20490;-89
2022/10/05 12:53:41;;;;;;;1.40;1.30;;;24.10;77.60;;;;;;4955863;28;20550;-88
2022/10/05 12:56:17;;;;;;;2.57;1.00;;;24.10;74.90;;;;;;4955222;28;20971;-89
2022/10/05 12:58:56;;;;;;;4.17;1.00;;;24.10;74.80;;;;;;4955144;28;20466;-83
2022/10/05 13:01:32;;;;;;;1.20;1.10;;;24.10;74.20;;;;;;4918581;29;20462;-83
2022/10/05 13:04:13;;;;;;;1.00;0.90;;;24.10;73.70;;;;;;4955004;28;20450;-84
2022/10/05 13:06:48;;;;;;;1.87;0.90;;;24.60;72.50;;;;;;4953947;28;20466;-83
2022/10/05 13:09:24;;;;;;;2.50;1.07;;;24.80;71.60;;;;;;4954709;28;20478;-84
2022/10/05 13:11:56;;;;;;;0.80;0.80;;;24.80;70.20;;;;;;4954828;28;20502;-86
2022/10/05 13:14:41;;;;;;;2.83;1.00;;;24.60;68.90;;;;;;4955034;28;20459;-84
2022/10/05 13:17:18;;;;;;;2.17;1.00;;;24.90;70.30;;;;;;4954869;28;20470;-86
2022/10/05 13:19:47;;;;;;;0.87;0.80;;;24.50;69.70;;;;;;4953732;28;20526;-84
2022/10/05 13:22:25;;;;;;;1.63;1.20;;;25.10;69.10;;;;;;4954929;28;20462;-86
2022/10/05 13:25:00;;;;;;;1.90;0.70;;;24.40;69.50;;;;;;4955026;28;20461;-85
2022/10/05 13:27:31;;;;;;;1.30;0.60;;;24.40;70.10;;;;;;4954763;28;20954;-83
2022/10/05 13:30:03;;;;;;;2.00;0.90;;;24.20;70.60;;;;;;4954183;28;20646;-84
2022/10/05 13:32:36;;;;;;;1.00;0.90;;;24.50;70.00;;;;;;4954860;28;20451;-85
2022/10/05 13:35:19;;;;;;;1.10;1.00;;;24.40;68.80;;;;;;4953689;28;20525;-85
2022/10/05 13:37:58;;;;;;;2.10;0.97;;;24.70;68.60;;;;;;4954666;28;20549;-87
2022/10/05 13:40:32;;;;;;;0.83;0.77;;;24.20;69.70;;;;;;4955027;28;20517;-87
2022/10/05 13:43:06;;;;;;;1.50;1.07;;;24.30;68.70;;;;;;4954769;28;20942;-85
2022/10/05 13:45:42;;;;;;;1.40;0.77;;;24.70;69.00;;;;;;4954864;28;21010;-85
2022/10/05 13:48:19;;;;;;;1.10;0.70;;;24.20;65.50;;;;;;4954795;28;20446;-84
2022/10/05 13:50:54;;;;;;;1.00;0.80;;;24.30;67.70;;;;;;4953330;28;20493;-84
2022/10/05 13:53:30;;;;;;;2.40;1.23;;;24.10;68.30;;;;;;4952362;28;20486;-86
2022/10/05 13:56:00;;;;;;;0.80;0.80;;;24.20;67.50;;;;;;4954565;28;20450;-84
2022/10/05 13:58:39;;;;;;;2.07;1.10;;;24.10;67.70;;;;;;4954482;28;20461;-86
2022/10/05 14:01:09;;;;;;;0.70;0.70;;;;;;;;;;4955106;28;20447;-94
2022/10/05 14:03:37;;;;;;;0.83;0.73;;;24.00;70.00;;;;;;4955013;28;20802;-86